Facturation.

Facturation.

Facturation

Les réservations de vols sont actuellement fermées.
Pour toute demande ou information, veuillez nous contacter directement au 06.73.72.56.28.

Description

Règlement de facture

Voir toute les actualités.

Avion / Hélicoptère / Simulateur*
Avion
METAR :

LFQA 171130Z AUTO VRB03KT CAVOK 24/13 Q1021


vue en direct sur l'aérodrome
facturation mentions légales politique de confidentialité
Cochet Concept
cx